Time;durP1;ratioP1;P1;durP2;ratioP2;P2;SDS_P1;SDS_P2;PMS_P1;PMS_P2;Temp;Humidity;BMP_temperature;BMP_pressure;BME280_temperature;BME280_humidity;BME280_pressure;Samples;Min_cycle;Max_cycle;Signal;HPM_P1;HPM_P2
2021/07/27 00:00:06;;;;;;;14.60;11.30;;;18.30;99.90;;;;;;5093164;28;20047;-83
2021/07/27 00:02:33;;;;;;;17.02;12.80;;;18.30;99.90;;;;;;5125938;28;20115;-83
2021/07/27 00:04:59;;;;;;;18.25;13.05;;;18.30;99.90;;;;;;5093291;28;20564;-84
2021/07/27 00:07:26;;;;;;;16.35;13.52;;;18.20;99.90;;;;;;5096188;28;20505;-83
2021/07/27 00:09:53;;;;;;;17.85;13.38;;;18.30;99.90;;;;;;5113402;28;20039;-83
2021/07/27 00:12:20;;;;;;;19.00;14.35;;;18.20;99.90;;;;;;5096474;28;20040;-83
2021/07/27 00:14:46;;;;;;;17.65;13.65;;;18.20;99.90;;;;;;5096852;28;20507;-83
2021/07/27 00:17:13;;;;;;;22.77;14.35;;;18.10;99.90;;;;;;5096436;28;20040;-83
2021/07/27 00:19:40;;;;;;;21.13;14.75;;;18.10;99.90;;;;;;5112721;28;20043;-83
2021/07/27 00:22:07;;;;;;;20.80;16.25;;;18.10;99.90;;;;;;5096690;28;20068;-83
2021/07/27 00:24:34;;;;;;;21.77;16.02;;;18.00;99.90;;;;;;5112643;28;20036;-83
2021/07/27 00:27:01;;;;;;;19.55;15.48;;;18.00;99.90;;;;;;5096147;28;20047;-83
2021/07/27 00:29:28;;;;;;;26.88;18.60;;;18.00;99.90;;;;;;5129415;28;20032;-83
2021/07/27 00:31:54;;;;;;;25.17;18.23;;;18.00;99.90;;;;;;5096353;28;20043;-84
2021/07/27 00:34:21;;;;;;;27.50;19.38;;;18.10;99.90;;;;;;5095952;28;20047;-83
2021/07/27 00:36:48;;;;;;;24.80;18.88;;;18.00;99.90;;;;;;5096066;28;20082;-84
2021/07/27 00:39:18;;;;;;;24.88;19.50;;;18.00;99.90;;;;;;5113331;28;20443;-83
2021/07/27 00:41:44;;;;;;;26.38;20.42;;;17.90;99.90;;;;;;5112534;28;20040;-83
2021/07/27 00:44:11;;;;;;;26.40;19.75;;;17.90;99.90;;;;;;5096773;28;20062;-84
2021/07/27 00:46:38;;;;;;;26.10;19.33;;;17.90;99.90;;;;;;5112315;28;20072;-83
2021/07/27 00:49:05;;;;;;;27.38;21.13;;;18.00;99.90;;;;;;5112593;28;20032;-83
2021/07/27 00:51:33;;;;;;;28.95;20.75;;;17.90;99.90;;;;;;5095657;28;20051;-83
2021/07/27 00:54:00;;;;;;;30.20;22.15;;;17.80;99.90;;;;;;5095748;28;20123;-83
2021/07/27 00:56:27;;;;;;;31.75;22.58;;;17.80;99.90;;;;;;5095237;28;20036;-83
2021/07/27 00:58:54;;;;;;;27.35;22.02;;;17.80;99.90;;;;;;5112317;28;20089;-83
2021/07/27 01:01:21;;;;;;;30.42;23.30;;;17.80;99.90;;;;;;5095877;28;20396;-83
2021/07/27 01:03:48;;;;;;;33.72;24.52;;;17.80;99.90;;;;;;5112444;28;20467;-84
2021/07/27 01:06:18;;;;;;;38.80;26.27;;;17.80;99.90;;;;;;5096784;28;20071;-84
2021/07/27 01:08:46;;;;;;;32.85;24.73;;;17.70;99.90;;;;;;5094892;28;20036;-84
2021/07/27 01:11:25;;;;;;;37.88;25.63;;;17.70;99.90;;;;;;5129208;28;20036;-83
2021/07/27 01:13:52;;;;;;;38.28;26.92;;;17.70;99.90;;;;;;5129062;28;20068;-85
2021/07/27 01:16:23;;;;;;;40.03;27.83;;;17.80;99.90;;;;;;5128889;28;20040;-84
2021/07/27 01:19:15;;;;;;;41.92;28.50;;;17.80;99.90;;;;;;5111855;28;20040;-83
2021/07/27 01:41:05;;;;;;;49.92;32.47;;;17.90;99.90;;;;;;5112418;28;20400;-83
2021/07/27 01:43:34;;;;;;;49.55;33.17;;;17.90;99.90;;;;;;5112811;28;20036;-83
2021/07/27 01:46:01;;;;;;;53.33;33.30;;;17.90;99.90;;;;;;5111801;28;20087;-83
2021/07/27 01:48:29;;;;;;;50.65;32.72;;;17.90;99.90;;;;;;5094453;28;20396;-83
2021/07/27 01:50:58;;;;;;;53.83;32.50;;;17.90;99.90;;;;;;5128143;28;20075;-83
2021/07/27 01:53:47;;;;;;;52.30;31.80;;;17.90;99.90;;;;;;5127954;28;20111;-83
2021/07/27 01:56:15;;;;;;;52.08;33.50;;;17.90;99.90;;;;;;5112645;28;20039;-83
2021/07/27 01:58:43;;;;;;;52.28;33.15;;;17.90;99.90;;;;;;5127597;28;20036;-83
2021/07/27 02:01:11;;;;;;;54.83;35.03;;;17.90;99.90;;;;;;5111248;28;20113;-83
2021/07/27 02:03:37;;;;;;;55.92;35.13;;;17.90;99.90;;;;;;5110425;28;20032;-83
2021/07/27 02:06:04;;;;;;;56.05;34.42;;;17.90;99.90;;;;;;5110926;28;20124;-83
2021/07/27 02:08:31;;;;;;;53.88;34.10;;;17.80;99.90;;;;;;5110558;28;20036;-84
2021/07/27 02:11:11;;;;;;;52.10;33.97;;;17.90;99.90;;;;;;5078006;28;20044;-83
2021/07/27 02:13:49;;;;;;;51.40;34.08;;;17.90;99.90;;;;;;5080981;28;20086;-84
2021/07/27 02:16:17;;;;;;;54.38;34.53;;;17.90;99.90;;;;;;5127798;28;20396;-83
2021/07/27 02:18:44;;;;;;;55.63;34.40;;;17.90;99.90;;;;;;5093807;28;20032;-84
2021/07/27 02:21:10;;;;;;;53.97;35.20;;;17.90;99.90;;;;;;5110945;28;20392;-83
2021/07/27 02:23:37;;;;;;;54.97;34.67;;;17.90;99.90;;;;;;5127324;28;20032;-83
2021/07/27 02:26:04;;;;;;;54.85;34.97;;;18.00;99.90;;;;;;5094142;28;20097;-84
2021/07/27 02:28:34;;;;;;;51.58;33.83;;;18.00;99.90;;;;;;5110653;28;20036;-84
2021/07/27 02:31:05;;;;;;;58.05;35.15;;;18.00;99.90;;;;;;5110697;28;20032;-83
2021/07/27 02:33:38;;;;;;;56.22;34.58;;;18.00;99.90;;;;;;5110999;28;20040;-83
2021/07/27 02:36:05;;;;;;;58.42;35.22;;;18.00;99.90;;;;;;5111077;28;20075;-83
2021/07/27 02:38:32;;;;;;;60.95;35.78;;;18.00;99.90;;;;;;5110765;28;20036;-83
2021/07/27 02:41:02;;;;;;;62.17;34.72;;;18.00;99.90;;;;;;5126817;28;20032;-83
2021/07/27 02:43:29;;;;;;;53.33;33.28;;;18.00;99.90;;;;;;5110684;28;20062;-83
2021/07/27 02:45:56;;;;;;;59.70;35.30;;;18.00;99.90;;;;;;5109879;28;20071;-84
2021/07/27 02:48:23;;;;;;;55.28;35.40;;;18.00;99.90;;;;;;5093619;28;20064;-83
2021/07/27 02:51:01;;;;;;;54.15;33.67;;;18.00;99.90;;;;;;5093160;28;20136;-84
2021/07/27 02:53:32;;;;;;;54.05;33.25;;;18.00;99.90;;;;;;5077486;28;20135;-83
2021/07/27 02:56:00;;;;;;;55.03;34.30;;;17.90;99.90;;;;;;5109910;28;20039;-83
2021/07/27 02:58:28;;;;;;;53.65;33.97;;;17.90;99.90;;;;;;5110019;28;20040;-83
2021/07/27 03:00:55;;;;;;;54.63;33.63;;;17.90;99.90;;;;;;5093321;28;20093;-83
2021/07/27 03:03:22;;;;;;;54.65;34.08;;;17.80;99.90;;;;;;5110276;28;20043;-83
2021/07/27 03:05:54;;;;;;;57.25;33.58;;;17.80;99.90;;;;;;5092996;28;20090;-84
2021/07/27 03:08:22;;;;;;;54.97;33.70;;;17.80;99.90;;;;;;5126856;28;20040;-83
2021/07/27 03:10:49;;;;;;;55.45;33.28;;;17.80;99.90;;;;;;5093709;28;20040;-83
2021/07/27 03:13:16;;;;;;;50.25;31.45;;;17.70;99.90;;;;;;5093418;28;20066;-83
2021/07/27 03:15:43;;;;;;;58.03;34.97;;;17.70;99.90;;;;;;5093131;28;20059;-84
2021/07/27 03:18:09;;;;;;;55.08;33.97;;;17.70;99.90;;;;;;5093409;28;20078;-84
2021/07/27 03:20:36;;;;;;;55.08;33.53;;;17.70;99.90;;;;;;5093571;28;20056;-84
2021/07/27 03:23:03;;;;;;;56.95;34.38;;;17.70;99.90;;;;;;5126629;28;20449;-83
2021/07/27 03:25:30;;;;;;;55.00;33.40;;;17.60;99.90;;;;;;5110231;28;20062;-83
2021/07/27 03:27:57;;;;;;;48.95;31.92;;;17.60;99.90;;;;;;5109586;28;20044;-83
2021/07/27 03:30:24;;;;;;;54.72;32.97;;;17.60;99.90;;;;;;5077034;28;20047;-83
2021/07/27 03:32:51;;;;;;;51.50;31.83;;;17.60;99.90;;;;;;5093102;28;20074;-83
2021/07/27 03:35:18;;;;;;;54.08;31.48;;;17.60;99.90;;;;;;5109797;28;20424;-82
2021/07/27 03:37:45;;;;;;;48.03;29.95;;;17.70;99.90;;;;;;5125948;28;20044;-84
2021/07/27 03:40:13;;;;;;;50.08;30.52;;;17.70;99.90;;;;;;5109803;28;20047;-83
2021/07/27 03:42:40;;;;;;;50.58;31.13;;;17.70;99.90;;;;;;5113239;28;20036;-83
2021/07/27 03:45:07;;;;;;;48.22;30.60;;;17.80;99.90;;;;;;5131498;28;20036;-83
2021/07/27 03:47:34;;;;;;;49.67;30.27;;;17.80;99.90;;;;;;5113711;28;20048;-83
2021/07/27 03:50:01;;;;;;;45.35;29.52;;;17.80;99.90;;;;;;5129422;28;20445;-83
2021/07/27 03:52:28;;;;;;;46.70;28.90;;;17.80;99.90;;;;;;5113573;28;20489;-83
2021/07/27 03:54:55;;;;;;;44.20;28.73;;;17.80;99.90;;;;;;5096505;28;20480;-83
2021/07/27 03:57:22;;;;;;;42.47;27.40;;;17.80;99.90;;;;;;5130586;28;20043;-84
2021/07/27 03:59:49;;;;;;;41.53;27.38;;;17.80;99.90;;;;;;5113216;28;20040;-83
2021/07/27 04:02:17;;;;;;;40.78;25.88;;;17.80;99.90;;;;;;5113663;28;20396;-84
2021/07/27 04:04:46;;;;;;;39.47;25.52;;;17.80;99.90;;;;;;5096621;28;20114;-84
2021/07/27 04:07:16;;;;;;;43.97;25.73;;;17.80;99.90;;;;;;5130493;28;20426;-84
2021/07/27 04:09:44;;;;;;;42.58;25.77;;;17.70;99.90;;;;;;5113820;28;20032;-85
2021/07/27 04:12:11;;;;;;;38.63;24.52;;;17.70;99.90;;;;;;5096770;28;20051;-83
2021/07/27 04:14:38;;;;;;;32.92;23.20;;;17.80;99.90;;;;;;5130093;28;20391;-84
2021/07/27 04:17:05;;;;;;;35.53;23.35;;;17.80;99.90;;;;;;5130770;28;20040;-84
2021/07/27 04:19:32;;;;;;;35.25;22.40;;;17.80;99.90;;;;;;5096240;28;20075;-83
2021/07/27 04:21:59;;;;;;;35.90;23.27;;;17.80;99.90;;;;;;5096196;28;20468;-84
2021/07/27 04:24:29;;;;;;;36.60;23.20;;;17.80;99.90;;;;;;5113043;28;20400;-83
2021/07/27 04:26:55;;;;;;;37.40;23.00;;;17.80;99.90;;;;;;5112519;28;20170;-83
2021/07/27 04:29:22;;;;;;;35.35;22.98;;;17.90;99.90;;;;;;5108058;28;20504;-83
2021/07/27 04:31:50;;;;;;;33.67;22.48;;;17.90;99.90;;;;;;5116404;28;20396;-84
2021/07/27 04:34:18;;;;;;;34.40;23.13;;;17.90;99.90;;;;;;5150407;28;20039;-83
2021/07/27 04:36:48;;;;;;;33.85;22.20;;;17.90;99.90;;;;;;5138169;28;20051;-83
2021/07/27 04:39:14;;;;;;;33.20;22.70;;;17.90;99.90;;;;;;5104560;28;20048;-83
2021/07/27 04:41:46;;;;;;;34.00;21.90;;;17.90;99.90;;;;;;5107825;28;20034;-84
2021/07/27 04:44:13;;;;;;;36.70;22.95;;;17.90;99.90;;;;;;5149953;28;20048;-83
2021/07/27 04:46:40;;;;;;;36.33;22.98;;;17.90;99.90;;;;;;5116477;28;20051;-84
2021/07/27 04:49:06;;;;;;;39.38;22.38;;;17.90;99.90;;;;;;5116054;28;20483;-84
2021/07/27 04:51:33;;;;;;;31.85;21.10;;;17.90;99.90;;;;;;5116682;28;20036;-83
2021/07/27 04:54:04;;;;;;;32.63;21.75;;;18.00;99.90;;;;;;5114858;28;20031;-84
2021/07/27 04:56:32;;;;;;;28.90;20.02;;;18.00;99.90;;;;;;5117632;28;20100;-83
2021/07/27 04:59:00;;;;;;;36.60;22.15;;;18.00;99.90;;;;;;5149489;28;20495;-83
2021/07/27 05:01:27;;;;;;;32.60;22.30;;;18.00;99.90;;;;;;5151524;28;20036;-84
2021/07/27 05:03:57;;;;;;;38.25;22.55;;;18.10;99.90;;;;;;5132386;28;20042;-84
2021/07/27 05:06:24;;;;;;;34.25;21.05;;;18.10;99.90;;;;;;5149798;28;20377;-83
2021/07/27 05:08:51;;;;;;;32.28;20.55;;;18.20;99.90;;;;;;5132262;28;20088;-83
2021/07/27 05:11:18;;;;;;;36.00;22.73;;;18.30;99.90;;;;;;5132603;28;20039;-83
2021/07/27 05:13:44;;;;;;;30.55;21.02;;;18.30;99.90;;;;;;5115771;28;20039;-83
2021/07/27 05:16:11;;;;;;;31.40;20.85;;;18.30;99.90;;;;;;5132132;28;20078;-84
2021/07/27 05:18:38;;;;;;;32.78;21.40;;;18.40;99.90;;;;;;5150776;28;20040;-83
2021/07/27 05:21:05;;;;;;;32.35;20.80;;;18.40;99.90;;;;;;5148975;28;20495;-83
2021/07/27 05:23:32;;;;;;;31.15;20.27;;;18.40;99.90;;;;;;5115318;28;20094;-83
2021/07/27 05:25:58;;;;;;;28.75;20.20;;;18.40;99.90;;;;;;5148807;28;20040;-83
2021/07/27 05:28:28;;;;;;;27.50;19.23;;;18.30;99.90;;;;;;5108283;28;20035;-83
2021/07/27 05:30:55;;;;;;;28.90;19.30;;;18.20;99.90;;;;;;5113805;28;20043;-83
2021/07/27 05:33:22;;;;;;;28.60;18.63;;;18.20;99.90;;;;;;5097654;28;20031;-83
2021/07/27 05:35:49;;;;;;;28.02;18.75;;;18.20;99.90;;;;;;5111347;28;20464;-83
2021/07/27 05:38:16;;;;;;;23.73;18.10;;;18.20;99.90;;;;;;5105208;28;20043;-83
2021/07/27 05:40:44;;;;;;;26.58;18.20;;;18.30;99.90;;;;;;5114278;28;20395;-84
2021/07/27 05:43:11;;;;;;;24.15;16.92;;;18.30;99.90;;;;;;5113325;28;20369;-83
2021/07/27 05:45:38;;;;;;;23.98;16.00;;;18.30;99.90;;;;;;5095317;28;20063;-84
2021/07/27 05:48:05;;;;;;;25.48;16.80;;;18.40;99.90;;;;;;5120582;28;20047;-84
2021/07/27 05:50:32;;;;;;;23.73;16.52;;;18.40;99.90;;;;;;5146643;28;20071;-83
2021/07/27 05:52:58;;;;;;;25.25;16.45;;;18.50;99.90;;;;;;5111036;28;20111;-84
2021/07/27 05:55:25;;;;;;;23.90;16.73;;;18.50;99.90;;;;;;5093223;28;20047;-84
2021/07/27 05:57:52;;;;;;;23.15;17.38;;;18.50;99.90;;;;;;5117985;28;20047;-84
2021/07/27 06:00:19;;;;;;;23.35;16.23;;;18.50;99.90;;;;;;5147607;28;20111;-84
2021/07/27 06:02:47;;;;;;;25.60;16.80;;;18.50;99.90;;;;;;5148110;28;20035;-83
2021/07/27 06:05:14;;;;;;;22.08;15.15;;;18.60;99.90;;;;;;5126050;28;20392;-84
2021/07/27 06:07:41;;;;;;;23.25;15.40;;;18.60;99.90;;;;;;5109008;28;20057;-84
2021/07/27 06:10:09;;;;;;;21.27;15.60;;;18.70;99.90;;;;;;5122465;28;20063;-84
2021/07/27 06:12:37;;;;;;;21.50;15.13;;;18.80;99.90;;;;;;5119639;28;20082;-83
2021/07/27 06:15:08;;;;;;;23.83;16.13;;;18.70;99.90;;;;;;5094288;28;20036;-84
2021/07/27 06:17:34;;;;;;;24.38;15.98;;;18.70;99.90;;;;;;5094349;28;20085;-82
2021/07/27 06:20:02;;;;;;;22.88;15.60;;;18.80;99.90;;;;;;5093920;28;20051;-83
2021/07/27 06:22:29;;;;;;;20.67;15.82;;;18.80;99.90;;;;;;5093977;28;20032;-81
2021/07/27 06:24:56;;;;;;;23.48;14.98;;;18.80;99.90;;;;;;5094034;28;20036;-83
2021/07/27 06:27:22;;;;;;;21.10;15.32;;;18.90;99.90;;;;;;5126900;28;20071;-81
2021/07/27 06:29:50;;;;;;;22.20;15.38;;;18.90;99.90;;;;;;5108239;28;20100;-83
2021/07/27 06:32:16;;;;;;;20.48;15.05;;;18.90;99.90;;;;;;5113599;28;20472;-81
2021/07/27 06:34:44;;;;;;;19.48;15.40;;;19.00;99.90;;;;;;5130847;28;20503;-82
2021/07/27 06:37:11;;;;;;;22.88;17.02;;;18.90;99.90;;;;;;5107823;28;20036;-82
2021/07/27 06:39:38;;;;;;;22.55;16.17;;;19.00;99.90;;;;;;5101774;28;20062;-83
2021/07/27 06:42:05;;;;;;;24.02;16.52;;;19.00;99.90;;;;;;5115523;28;20533;-81
2021/07/27 06:44:33;;;;;;;27.38;16.73;;;19.00;99.90;;;;;;5101064;28;20048;-82
2021/07/27 06:47:00;;;;;;;24.40;16.90;;;19.10;99.90;;;;;;5110409;28;20040;-83
2021/07/27 06:49:26;;;;;;;23.00;17.10;;;19.10;99.90;;;;;;5093263;28;20123;-83
2021/07/27 06:51:54;;;;;;;27.27;18.10;;;19.10;99.90;;;;;;5110498;28;20063;-83
2021/07/27 06:54:21;;;;;;;22.67;16.95;;;19.10;99.90;;;;;;5106295;28;20088;-83
2021/07/27 06:56:47;;;;;;;25.20;17.00;;;19.10;99.90;;;;;;5147461;28;20036;-83
2021/07/27 06:59:15;;;;;;;23.33;17.55;;;19.10;99.90;;;;;;5113621;28;20042;-83
2021/07/27 07:01:42;;;;;;;26.45;16.98;;;19.10;99.90;;;;;;5147384;28;20043;-83
2021/07/27 07:04:08;;;;;;;23.75;17.02;;;19.20;99.90;;;;;;5107881;28;20036;-83
2021/07/27 07:06:35;;;;;;;26.02;17.42;;;19.30;99.90;;;;;;5093846;28;20507;-84
2021/07/27 07:09:02;;;;;;;25.23;17.35;;;19.40;99.90;;;;;;5127136;28;20078;-83
2021/07/27 07:11:29;;;;;;;30.45;18.42;;;19.50;99.90;;;;;;5093134;28;20036;-83
2021/07/27 07:13:56;;;;;;;24.60;17.45;;;19.60;99.90;;;;;;5093431;28;20067;-83
2021/07/27 07:16:22;;;;;;;25.00;18.13;;;19.70;99.90;;;;;;5111153;28;20032;-84
2021/07/27 07:18:49;;;;;;;26.60;18.45;;;19.70;99.90;;;;;;5114452;28;20093;-85
2021/07/27 07:21:16;;;;;;;28.75;17.83;;;19.80;99.90;;;;;;5130830;28;20070;-85
2021/07/27 07:23:43;;;;;;;32.58;19.17;;;19.90;99.90;;;;;;5097484;28;20032;-85
2021/07/27 07:26:10;;;;;;;30.65;19.05;;;19.90;99.90;;;;;;5113812;28;20167;-84
2021/07/27 07:28:37;;;;;;;25.73;18.02;;;19.90;99.90;;;;;;5130828;28;20036;-85
2021/07/27 07:31:07;;;;;;;27.75;18.85;;;20.00;99.90;;;;;;5130797;28;20043;-85
2021/07/27 07:33:34;;;;;;;24.88;17.98;;;20.00;99.90;;;;;;5130278;28;20039;-84
2021/07/27 07:36:08;;;;;;;28.23;18.65;;;19.90;99.90;;;;;;5097360;28;20040;-85
2021/07/27 07:38:35;;;;;;;29.98;18.23;;;19.80;99.90;;;;;;5113349;28;20044;-84
2021/07/27 07:41:06;;;;;;;27.25;19.48;;;19.80;99.90;;;;;;5098727;28;20063;-85
2021/07/27 07:43:33;;;;;;;26.77;18.20;;;19.70;99.90;;;;;;5150754;28;20027;-85
2021/07/27 07:46:00;;;;;;;25.98;18.17;;;19.80;99.90;;;;;;5133800;28;20564;-82
2021/07/27 07:48:27;;;;;;;28.50;19.13;;;19.90;99.90;;;;;;5114274;28;20043;-83
2021/07/27 07:50:54;;;;;;;27.63;19.45;;;20.00;99.90;;;;;;5128139;28;20114;-83
2021/07/27 07:53:21;;;;;;;27.33;19.20;;;20.00;99.90;;;;;;5137529;28;20047;-86
2021/07/27 07:55:48;;;;;;;29.55;19.50;;;19.90;99.90;;;;;;5113584;28;20047;-85
2021/07/27 07:58:15;;;;;;;26.92;19.05;;;19.90;99.90;;;;;;5096598;28;20047;-86
2021/07/27 08:00:42;;;;;;;27.98;18.38;;;19.90;99.90;;;;;;5133350;28;21781;-84
2021/07/27 08:03:09;;;;;;;27.80;18.52;;;20.00;99.90;;;;;;5133954;28;20040;-85
2021/07/27 08:05:36;;;;;;;29.58;19.65;;;20.20;99.90;;;;;;5133614;28;20067;-85
2021/07/27 08:08:03;;;;;;;26.88;18.05;;;20.40;99.90;;;;;;5099077;28;20074;-83
2021/07/27 08:10:29;;;;;;;30.77;20.30;;;20.60;99.90;;;;;;5129669;28;20081;-82
2021/07/27 08:12:56;;;;;;;29.30;20.30;;;20.70;99.90;;;;;;5132828;28;20044;-84
2021/07/27 08:15:26;;;;;;;32.83;21.23;;;20.60;99.90;;;;;;5117107;28;20046;-86
2021/07/27 08:17:53;;;;;;;31.85;21.88;;;20.60;99.90;;;;;;5133970;28;20055;-84
2021/07/27 08:20:21;;;;;;;34.67;22.15;;;20.60;99.90;;;;;;5133559;28;20031;-86
2021/07/27 08:22:48;;;;;;;33.75;21.15;;;20.60;99.90;;;;;;5133825;28;20079;-86
2021/07/27 08:25:15;;;;;;;30.20;21.63;;;20.80;99.90;;;;;;5150275;28;20482;-84
2021/07/27 08:27:43;;;;;;;30.10;20.67;;;20.90;99.90;;;;;;5133474;28;20044;-85
2021/07/27 08:30:13;;;;;;;32.10;22.40;;;21.10;99.90;;;;;;5116868;28;20499;-86
2021/07/27 08:32:47;;;;;;;33.17;21.92;;;21.30;99.90;;;;;;5133359;28;20035;-85
2021/07/27 08:35:16;;;;;;;33.13;23.13;;;21.30;99.90;;;;;;5132979;28;20070;-83
2021/07/27 08:37:43;;;;;;;34.17;24.77;;;21.10;99.90;;;;;;5149666;28;20063;-82
2021/07/27 08:40:11;;;;;;;31.60;21.77;;;21.10;99.90;;;;;;5149948;28;20088;-80
2021/07/27 08:42:41;;;;;;;30.80;21.52;;;21.20;99.90;;;;;;5149228;28;20043;-82
2021/07/27 08:45:09;;;;;;;33.65;22.08;;;21.30;99.90;;;;;;5149473;28;20067;-83
2021/07/27 08:47:39;;;;;;;33.08;22.08;;;21.30;99.90;;;;;;5149349;28;20476;-84
2021/07/27 08:50:08;;;;;;;34.20;23.05;;;21.30;99.90;;;;;;5149807;28;20039;-86
2021/07/27 08:52:36;;;;;;;30.40;22.20;;;21.40;99.90;;;;;;5132567;28;20028;-86
2021/07/27 08:55:07;;;;;;;28.65;21.05;;;21.60;99.90;;;;;;5132853;28;20085;-90
2021/07/27 08:57:35;;;;;;;30.52;21.42;;;21.70;99.90;;;;;;5132819;28;20070;-87
2021/07/27 09:00:05;;;;;;;34.03;22.45;;;21.90;99.90;;;;;;5149775;28;20044;-86
2021/07/27 09:02:33;;;;;;;31.55;21.88;;;22.10;99.90;;;;;;5149792;28;20043;-91
2021/07/27 09:05:33;;;;;;;32.05;21.85;;;22.20;99.90;;;;;;5099629;28;20046;-78
2021/07/27 09:08:10;;;;;;;29.23;20.48;;;22.10;99.90;;;;;;5142828;28;20101;-83
2021/07/27 09:10:39;;;;;;;28.15;20.50;;;22.30;99.90;;;;;;5111660;28;20032;-82
2021/07/27 09:13:08;;;;;;;30.10;22.08;;;22.30;99.90;;;;;;5130008;28;20040;-82
2021/07/27 09:15:43;;;;;;;32.38;24.00;;;22.30;99.90;;;;;;5128174;28;20033;-83
2021/07/27 09:18:14;;;;;;;35.95;23.70;;;22.30;99.90;;;;;;5124583;28;20040;-82
2021/07/27 09:20:46;;;;;;;31.77;21.60;;;22.20;99.90;;;;;;5148065;28;20036;-82
2021/07/27 09:23:18;;;;;;;30.45;21.83;;;22.20;99.90;;;;;;5149198;28;20147;-80
2021/07/27 09:25:51;;;;;;;27.38;20.85;;;22.30;99.90;;;;;;5139229;28;20093;-79
2021/07/27 09:28:19;;;;;;;31.13;22.15;;;22.30;99.90;;;;;;5106108;28;20092;-79
2021/07/27 09:30:47;;;;;;;27.85;21.08;;;22.40;99.90;;;;;;5148605;28;20069;-78
2021/07/27 09:33:16;;;;;;;26.50;20.38;;;22.40;99.90;;;;;;5148753;28;20038;-76
2021/07/27 09:35:44;;;;;;;29.05;19.98;;;22.30;99.90;;;;;;5148180;28;20028;-78
2021/07/27 09:38:16;;;;;;;31.52;20.80;;;22.20;99.90;;;;;;5148161;28;20372;-77
2021/07/27 09:40:51;;;;;;;27.77;20.25;;;22.20;99.90;;;;;;5137820;28;20032;-76
2021/07/27 09:43:23;;;;;;;28.87;21.43;;;22.30;99.90;;;;;;5127387;28;20036;-76
2021/07/27 09:45:55;;;;;;;31.90;23.05;;;22.10;99.90;;;;;;5128206;28;20051;-80
2021/07/27 09:48:23;;;;;;;30.70;22.95;;;22.10;99.90;;;;;;5119985;28;20491;-78
2021/07/27 09:50:51;;;;;;;29.75;22.27;;;22.10;99.90;;;;;;5148914;28;20040;-78
2021/07/27 09:53:19;;;;;;;30.17;21.23;;;22.20;99.90;;;;;;5148850;28;20040;-81
2021/07/27 09:55:46;;;;;;;29.25;21.95;;;22.30;99.90;;;;;;5148596;28;20044;-77
2021/07/27 09:58:13;;;;;;;33.97;23.58;;;22.50;99.90;;;;;;5148011;28;20093;-74
2021/07/27 10:00:51;;;;;;;26.77;20.25;;;22.60;99.90;;;;;;5148066;28;20084;-75
2021/07/27 10:03:24;;;;;;;31.17;22.30;;;22.60;99.90;;;;;;5149089;28;20050;-80
2021/07/27 10:05:56;;;;;;;31.83;23.13;;;22.60;99.90;;;;;;5147547;28;20047;-79
2021/07/27 10:08:31;;;;;;;32.45;23.60;;;22.50;99.90;;;;;;5136244;28;20118;-77
2021/07/27 10:11:09;;;;;;;31.13;23.13;;;22.60;99.90;;;;;;5127631;28;20036;-83
2021/07/27 10:13:39;;;;;;;28.60;21.75;;;22.60;99.90;;;;;;5094238;28;20071;-78
2021/07/27 10:16:18;;;;;;;30.42;22.10;;;22.80;99.90;;;;;;5128589;28;20043;-80
2021/07/27 10:18:45;;;;;;;31.67;21.30;;;23.10;99.90;;;;;;5112025;28;20032;-78
2021/07/27 10:21:17;;;;;;;29.75;22.17;;;23.20;99.90;;;;;;5110754;28;20040;-78
2021/07/27 10:23:43;;;;;;;31.70;23.02;;;23.20;99.90;;;;;;5127390;28;20035;-76
2021/07/27 10:26:10;;;;;;;36.17;23.90;;;23.10;99.90;;;;;;5133275;28;20492;-78
2021/07/27 10:28:37;;;;;;;27.63;20.85;;;23.00;99.90;;;;;;5095101;28;20049;-76
2021/07/27 10:31:05;;;;;;;29.45;21.80;;;23.00;99.90;;;;;;5133627;28;20032;-77
2021/07/27 10:33:33;;;;;;;29.00;21.13;;;22.90;99.90;;;;;;5137624;28;20046;-81
2021/07/27 10:36:00;;;;;;;31.83;20.75;;;22.90;99.90;;;;;;5135081;28;20035;-79
2021/07/27 10:38:38;;;;;;;27.63;21.15;;;22.90;99.90;;;;;;5121080;28;20058;-79
2021/07/27 10:41:18;;;;;;;29.35;21.80;;;23.00;99.90;;;;;;5134561;28;20400;-78
2021/07/27 10:43:46;;;;;;;26.95;20.48;;;23.10;99.90;;;;;;5144030;28;20436;-79
2021/07/27 10:46:12;;;;;;;25.50;20.42;;;23.00;99.90;;;;;;5137668;28;20079;-79
2021/07/27 10:48:40;;;;;;;28.13;21.42;;;23.10;99.90;;;;;;5136064;28;20478;-79
2021/07/27 10:51:09;;;;;;;27.23;20.40;;;23.20;99.90;;;;;;5133748;28;20039;-80
2021/07/27 10:53:36;;;;;;;25.23;20.45;;;23.40;99.90;;;;;;5116801;28;20095;-79
2021/07/27 10:56:10;;;;;;;27.73;20.83;;;23.30;99.90;;;;;;5136930;28;20036;-78
2021/07/27 10:58:37;;;;;;;25.60;20.25;;;23.50;99.90;;;;;;5137297;28;20031;-78
2021/07/27 11:01:11;;;;;;;21.92;19.35;;;23.50;99.90;;;;;;5099246;28;20378;-78
2021/07/27 11:03:42;;;;;;;22.77;19.45;;;23.60;99.90;;;;;;5133582;28;20036;-77
2021/07/27 11:06:09;;;;;;;20.55;17.23;;;23.50;99.90;;;;;;5128595;28;20480;-76
2021/07/27 11:08:36;;;;;;;20.30;16.92;;;23.40;99.90;;;;;;5132144;28;20043;-76
2021/07/27 11:11:10;;;;;;;19.58;15.52;;;23.50;99.90;;;;;;5131489;28;20059;-76
2021/07/27 11:13:37;;;;;;;20.77;17.08;;;23.60;99.90;;;;;;5132326;28;20119;-78
2021/07/27 11:16:05;;;;;;;17.42;14.82;;;23.70;99.90;;;;;;5131166;28;20512;-79
2021/07/27 11:18:40;;;;;;;19.27;14.27;;;23.70;99.90;;;;;;5125297;28;20064;-87
2021/07/27 11:21:09;;;;;;;17.83;15.00;;;23.90;99.90;;;;;;5147816;28;20111;-89
2021/07/27 11:23:36;;;;;;;17.65;12.98;;;24.00;99.90;;;;;;5114086;28;20096;-88
2021/07/27 11:26:03;;;;;;;14.65;12.48;;;24.00;99.90;;;;;;5148051;28;20044;-90
2021/07/27 11:28:35;;;;;;;17.13;12.00;;;24.00;99.90;;;;;;5148135;28;20032;-85
2021/07/27 11:31:02;;;;;;;16.17;11.88;;;24.20;99.90;;;;;;5145076;28;20031;-86
2021/07/27 11:33:29;;;;;;;14.93;11.13;;;24.20;99.90;;;;;;5127943;28;20495;-87
2021/07/27 11:35:59;;;;;;;14.07;10.60;;;24.20;99.90;;;;;;5110151;28;20036;-88
2021/07/27 11:38:29;;;;;;;13.90;10.80;;;24.40;99.90;;;;;;5128069;28;20050;-87
2021/07/27 11:41:25;;;;;;;14.05;11.23;;;24.50;99.90;;;;;;5127408;28;20434;-89
2021/07/27 11:43:56;;;;;;;13.75;10.70;;;24.40;99.90;;;;;;5105986;28;20078;-88
2021/07/27 11:46:38;;;;;;;13.23;9.88;;;24.30;99.90;;;;;;5127058;28;20515;-88
2021/07/27 11:49:09;;;;;;;13.13;9.63;;;24.50;99.90;;;;;;5112022;28;20064;-89
2021/07/27 11:51:36;;;;;;;14.52;9.18;;;24.60;99.90;;;;;;5110723;28;20028;-91
2021/07/27 11:54:03;;;;;;;18.38;9.80;;;24.90;99.90;;;;;;5127600;28;20063;-88
2021/07/27 11:56:30;;;;;;;13.57;10.95;;;24.80;99.90;;;;;;5093993;28;20067;-89
2021/07/27 11:59:00;;;;;;;11.95;10.27;;;24.80;99.90;;;;;;5094037;28;20485;-90
2021/07/27 12:01:43;;;;;;;14.60;10.82;;;24.70;99.90;;;;;;5134578;28;20028;-89
2021/07/27 12:04:11;;;;;;;15.07;10.75;;;24.40;99.90;;;;;;5152381;28;20081;-87
2021/07/27 12:06:52;;;;;;;13.75;10.57;;;24.50;99.90;;;;;;5134598;28;20418;-89
2021/07/27 12:09:22;;;;;;;12.57;11.15;;;24.60;99.90;;;;;;5151633;28;20077;-89
2021/07/27 12:11:51;;;;;;;15.18;12.15;;;24.70;99.90;;;;;;5133970;28;20175;-89
2021/07/27 12:14:19;;;;;;;14.82;10.75;;;24.50;99.90;;;;;;5151708;28;20365;-87
2021/07/27 12:16:47;;;;;;;12.70;10.13;;;24.60;99.90;;;;;;5150534;28;20477;-87
2021/07/27 12:19:14;;;;;;;17.52;11.52;;;24.70;99.90;;;;;;5117752;28;20031;-87
2021/07/27 12:21:41;;;;;;;14.45;10.65;;;24.70;99.90;;;;;;5134173;28;20100;-93
2021/07/27 12:24:09;;;;;;;15.20;11.48;;;24.50;99.90;;;;;;5117613;28;20542;-88
2021/07/27 12:26:36;;;;;;;12.55;10.20;;;24.30;99.90;;;;;;5151436;28;20035;-89
2021/07/27 12:29:04;;;;;;;14.93;11.27;;;24.40;99.90;;;;;;5134534;28;20108;-89
2021/07/27 12:31:31;;;;;;;16.20;10.75;;;24.60;99.90;;;;;;5117651;28;20040;-90
2021/07/27 12:33:58;;;;;;;13.23;10.73;;;24.80;99.90;;;;;;5134045;28;20092;-87
2021/07/27 12:36:25;;;;;;;13.20;10.75;;;24.90;99.90;;;;;;5150565;28;20043;-89
2021/07/27 12:38:51;;;;;;;15.15;10.57;;;25.00;99.90;;;;;;5150199;28;20472;-87
2021/07/27 12:41:18;;;;;;;12.85;10.30;;;25.00;99.90;;;;;;5134305;28;20040;-87
2021/07/27 12:43:46;;;;;;;15.23;10.25;;;24.90;99.90;;;;;;5116746;28;20043;-87
2021/07/27 12:46:12;;;;;;;14.77;10.27;;;24.80;99.90;;;;;;5133447;28;20503;-87
2021/07/27 12:48:40;;;;;;;13.80;11.05;;;24.60;99.90;;;;;;5116936;28;20047;-87
2021/07/27 12:51:06;;;;;;;14.13;10.85;;;24.40;99.90;;;;;;5117153;28;20114;-86
2021/07/27 12:53:33;;;;;;;13.38;10.27;;;24.50;99.90;;;;;;5116665;28;20582;-86